Time;durP1;ratioP1;P1;durP2;ratioP2;P2;SDS_P1;SDS_P2;PMS_P1;PMS_P2;Temp;Humidity;BMP_temperature;BMP_pressure;BME280_temperature;BME280_humidity;BME280_pressure;Samples;Min_cycle;Max_cycle;Signal;HPM_P1;HPM_P2
2021/01/03 00:01:55;;;;;;;2.33;1.90;;;15.70;83.40;;;;;;5104928;28;20118;-43
2021/01/03 00:04:21;;;;;;;2.08;1.40;;;15.70;83.50;;;;;;5104537;28;20044;-42
2021/01/03 00:06:51;;;;;;;2.63;1.60;;;15.60;83.50;;;;;;5104908;28;20024;-42
2021/01/03 00:09:18;;;;;;;2.20;1.67;;;15.60;83.50;;;;;;5104835;28;20028;-42
2021/01/03 00:11:44;;;;;;;2.00;1.60;;;15.60;83.50;;;;;;5086767;28;20053;-42
2021/01/03 00:14:10;;;;;;;2.38;1.52;;;15.60;83.50;;;;;;5107027;28;20027;-42
2021/01/03 00:16:36;;;;;;;1.70;1.60;;;15.60;83.50;;;;;;5104864;28;20039;-42
2021/01/03 00:19:03;;;;;;;3.60;2.10;;;15.60;83.60;;;;;;5107841;28;20143;-42
2021/01/03 00:21:30;;;;;;;2.15;1.48;;;15.60;83.50;;;;;;5124872;28;20031;-42
2021/01/03 00:23:56;;;;;;;1.60;1.50;;;15.60;83.50;;;;;;5124640;28;20057;-42
2021/01/03 00:26:22;;;;;;;2.70;1.70;;;15.60;83.50;;;;;;5124990;28;20038;-42
2021/01/03 00:28:48;;;;;;;2.47;1.42;;;15.60;83.50;;;;;;5125010;28;20030;-42
2021/01/03 00:31:15;;;;;;;1.67;1.58;;;15.60;83.50;;;;;;5107029;28;20028;-42
2021/01/03 00:33:41;;;;;;;2.65;1.80;;;15.60;83.50;;;;;;5104256;28;20024;-42
2021/01/03 00:36:07;;;;;;;2.55;1.48;;;15.60;83.50;;;;;;5104194;28;20039;-41
2021/01/03 00:38:33;;;;;;;1.85;1.60;;;15.60;83.40;;;;;;5104210;28;20019;-42
2021/01/03 00:40:59;;;;;;;3.15;1.63;;;15.60;83.40;;;;;;5109453;28;20035;-43
2021/01/03 00:43:26;;;;;;;3.42;1.83;;;15.60;83.40;;;;;;5119635;28;20038;-44
2021/01/03 00:45:52;;;;;;;2.35;1.70;;;15.60;83.50;;;;;;5124589;28;20031;-43
2021/01/03 00:48:18;;;;;;;1.90;1.57;;;15.60;83.50;;;;;;5124171;28;20036;-42
2021/01/03 00:50:44;;;;;;;2.22;1.98;;;15.60;83.40;;;;;;5124245;28;20019;-42
2021/01/03 00:53:11;;;;;;;2.90;1.73;;;15.60;83.40;;;;;;5124123;28;20020;-42
2021/01/03 00:55:37;;;;;;;2.17;1.80;;;15.50;83.40;;;;;;5123872;28;20020;-42
2021/01/03 00:58:03;;;;;;;2.80;1.70;;;15.50;83.30;;;;;;5124012;28;20031;-42
2021/01/03 01:00:31;;;;;;;3.20;1.75;;;15.60;83.40;;;;;;5112487;28;20024;-42
2021/01/03 01:02:57;;;;;;;1.88;1.65;;;15.50;83.30;;;;;;5085513;28;20028;-42
2021/01/03 01:05:23;;;;;;;2.10;1.90;;;15.50;83.30;;;;;;5085462;28;20360;-42
2021/01/03 01:07:50;;;;;;;2.17;1.70;;;15.60;83.30;;;;;;5103523;28;20269;-42
2021/01/03 01:10:21;;;;;;;2.15;1.70;;;15.50;83.20;;;;;;5106288;28;20500;-42
2021/01/03 01:12:49;;;;;;;3.17;1.85;;;15.50;83.20;;;;;;5103489;28;20036;-42
2021/01/03 01:15:18;;;;;;;1.80;1.50;;;15.50;83.20;;;;;;5107358;28;20039;-42
2021/01/03 01:17:48;;;;;;;2.47;1.63;;;15.50;83.20;;;;;;5103591;28;20044;-42
2021/01/03 01:20:15;;;;;;;2.10;1.55;;;15.50;83.10;;;;;;5116628;28;20032;-42
2021/01/03 01:22:41;;;;;;;;;;;15.50;83.20;;;;;;5106079;28;20044;-42
2021/01/03 01:25:08;;;;;;;2.28;1.65;;;15.50;83.10;;;;;;5123390;28;19907;-42
2021/01/03 01:27:34;;;;;;;4.45;1.98;;;15.50;83.10;;;;;;5123577;28;20055;-42
2021/01/03 01:30:01;;;;;;;2.30;1.70;;;15.50;83.10;;;;;;5116181;28;20119;-43
2021/01/03 01:32:27;;;;;;;2.00;1.50;;;15.50;83.10;;;;;;5103153;28;20020;-42
2021/01/03 01:34:53;;;;;;;2.13;1.50;;;15.50;83.00;;;;;;5102717;28;20032;-42
2021/01/03 01:37:19;;;;;;;2.58;1.88;;;15.40;83.00;;;;;;5102940;28;20012;-42
2021/01/03 01:39:45;;;;;;;3.33;1.67;;;15.40;83.00;;;;;;5084604;28;20032;-42
2021/01/03 01:42:11;;;;;;;2.17;1.80;;;15.40;83.00;;;;;;5108465;28;20070;-42
2021/01/03 01:44:37;;;;;;;2.33;1.80;;;15.40;83.00;;;;;;5117492;28;20685;-42
2021/01/03 01:47:22;;;;;;;1.83;1.65;;;15.40;82.90;;;;;;5123188;28;20060;-42
2021/01/03 01:49:48;;;;;;;2.92;1.90;;;15.40;82.90;;;;;;5106545;28;20035;-42
2021/01/03 01:52:16;;;;;;;1.85;1.52;;;15.40;82.90;;;;;;5084710;28;20786;-42
2021/01/03 01:54:45;;;;;;;2.40;1.83;;;15.40;82.80;;;;;;5084634;28;20027;-42
2021/01/03 01:57:21;;;;;;;1.80;1.70;;;15.40;82.80;;;;;;5084458;28;20038;-42
2021/01/03 01:59:51;;;;;;;2.10;1.63;;;15.40;82.80;;;;;;5084698;28;20036;-42
2021/01/03 02:03:05;;;;;;;2.25;1.90;;;15.40;82.80;;;;;;5102448;28;20217;-42
2021/01/03 02:05:48;;;;;;;2.00;1.80;;;15.30;82.70;;;;;;5095001;28;20548;-42
2021/01/03 02:08:35;;;;;;;3.97;1.90;;;15.30;82.70;;;;;;5105241;28;20058;-41
2021/01/03 02:11:01;;;;;;;2.97;1.40;;;15.30;82.70;;;;;;5084432;28;20081;-41
2021/01/03 02:13:42;;;;;;;2.80;1.83;;;15.30;82.60;;;;;;5102708;28;20054;-42
2021/01/03 02:16:11;;;;;;;2.28;1.70;;;15.30;82.60;;;;;;5102458;28;20024;-42
2021/01/03 02:18:38;;;;;;;2.10;1.90;;;15.30;82.60;;;;;;5084427;28;20596;-42
2021/01/03 02:21:10;;;;;;;2.42;1.80;;;15.30;82.60;;;;;;5067603;28;20040;-42
2021/01/03 02:23:55;;;;;;;2.55;1.50;;;15.30;82.60;;;;;;5102499;28;20024;-42
2021/01/03 02:26:23;;;;;;;1.98;1.73;;;15.30;82.60;;;;;;5086684;28;20114;-42
2021/01/03 02:28:49;;;;;;;;;;;15.30;82.60;;;;;;5068172;28;20009;-42
2021/01/03 02:31:18;;;;;;;2.22;2.03;;;15.30;82.60;;;;;;5102238;28;19915;-42
2021/01/03 02:33:46;;;;;;;2.45;1.75;;;15.30;82.60;;;;;;5102608;28;20028;-42
2021/01/03 02:36:50;;;;;;;2.17;1.77;;;15.20;82.40;;;;;;5083775;28;20028;-42
2021/01/03 02:39:44;;;;;;;2.00;1.65;;;15.20;82.40;;;;;;5080478;28;20040;-42
2021/01/03 02:42:16;;;;;;;2.08;1.88;;;15.20;82.40;;;;;;5101986;28;20032;-43
2021/01/03 02:44:42;;;;;;;2.63;1.90;;;15.20;82.40;;;;;;5114140;28;20028;-42
2021/01/03 02:47:08;;;;;;;4.00;1.70;;;15.20;82.50;;;;;;5104357;28;20484;-42
2021/01/03 02:49:35;;;;;;;1.83;1.50;;;15.20;82.50;;;;;;5071475;28;20024;-42
2021/01/03 02:52:02;;;;;;;2.38;1.90;;;15.20;82.40;;;;;;5102124;28;20048;-42
2021/01/03 02:54:28;;;;;;;1.70;1.60;;;15.20;82.40;;;;;;5067611;28;20034;-42
2021/01/03 02:56:54;;;;;;;2.25;1.70;;;15.20;82.40;;;;;;5101816;28;20024;-42
2021/01/03 02:59:20;;;;;;;2.03;1.83;;;15.20;82.40;;;;;;5103794;28;20032;-42
2021/01/03 03:01:46;;;;;;;2.45;1.90;;;15.10;82.40;;;;;;5122455;28;20040;-42
2021/01/03 03:04:13;;;;;;;2.00;1.70;;;15.20;82.40;;;;;;5122361;28;20055;-43
2021/01/03 03:06:39;;;;;;;2.17;1.83;;;15.20;82.40;;;;;;5122026;28;20112;-42
2021/01/03 03:09:06;;;;;;;2.15;1.77;;;15.20;82.50;;;;;;5122296;28;20028;-43
2021/01/03 03:11:32;;;;;;;1.88;1.67;;;15.10;82.40;;;;;;5122359;28;20504;-42
2021/01/03 03:13:59;;;;;;;2.58;1.80;;;15.10;82.30;;;;;;5122378;28;20030;-42
2021/01/03 03:16:25;;;;;;;2.05;1.85;;;15.10;82.40;;;;;;5121970;28;20028;-42
2021/01/03 03:18:51;;;;;;;2.03;1.85;;;15.10;82.30;;;;;;5120435;28;20044;-42
2021/01/03 03:21:18;;;;;;;2.40;1.80;;;15.10;82.30;;;;;;5086961;28;20527;-42
2021/01/03 03:23:44;;;;;;;;;;;15.10;82.30;;;;;;5107329;28;20024;-42
2021/01/03 03:26:10;;;;;;;2.10;1.88;;;15.10;82.30;;;;;;5105429;28;20613;-42
2021/01/03 03:28:36;;;;;;;2.58;1.67;;;15.10;82.30;;;;;;5105365;28;20043;-42
2021/01/03 03:31:03;;;;;;;1.95;1.80;;;15.10;82.40;;;;;;5105245;28;20020;-42
2021/01/03 03:33:29;;;;;;;2.33;2.13;;;15.10;82.30;;;;;;5105312;28;20044;-42
2021/01/03 03:35:56;;;;;;;4.25;2.30;;;15.10;82.30;;;;;;5104915;28;20024;-42
2021/01/03 03:38:22;;;;;;;2.03;1.83;;;15.10;82.30;;;;;;5105089;28;20114;-42
2021/01/03 03:40:48;;;;;;;2.33;1.98;;;15.10;82.30;;;;;;5105056;28;20039;-42
2021/01/03 03:43:14;;;;;;;2.38;1.85;;;15.10;82.30;;;;;;5105200;28;20028;-41
2021/01/03 03:45:40;;;;;;;2.85;1.90;;;15.10;82.30;;;;;;5104749;28;20059;-42
2021/01/03 03:48:07;;;;;;;2.35;1.77;;;15.00;82.20;;;;;;5110539;28;20420;-41
2021/01/03 03:50:33;;;;;;;2.10;1.90;;;15.00;82.20;;;;;;5113426;28;20066;-41
2021/01/03 03:52:59;;;;;;;2.25;1.75;;;15.00;82.20;;;;;;5090552;28;20287;-41
2021/01/03 03:55:25;;;;;;;3.20;1.73;;;15.00;82.90;;;;;;5125259;28;20019;-41
2021/01/03 03:57:51;;;;;;;1.92;1.73;;;15.00;82.20;;;;;;5124877;28;20031;-41
2021/01/03 04:00:20;;;;;;;2.53;1.88;;;15.00;82.20;;;;;;5115283;28;20024;-41
2021/01/03 04:02:47;;;;;;;1.90;1.70;;;15.00;82.20;;;;;;5104675;28;20050;-42
2021/01/03 04:05:16;;;;;;;2.20;2.00;;;15.00;82.20;;;;;;5086515;28;20111;-41
2021/01/03 04:07:42;;;;;;;3.85;2.03;;;15.00;82.20;;;;;;5086300;28;20032;-41
2021/01/03 04:10:09;;;;;;;2.08;1.75;;;15.00;82.20;;;;;;5104681;28;20019;-41
2021/01/03 04:12:36;;;;;;;2.22;2.03;;;14.90;82.20;;;;;;5086578;28;20650;-41
2021/01/03 04:15:07;;;;;;;2.42;2.13;;;14.90;82.10;;;;;;5086362;28;20044;-41
2021/01/03 04:17:33;;;;;;;2.13;1.83;;;14.90;82.20;;;;;;5113361;28;20043;-42
2021/01/03 04:19:59;;;;;;;2.72;2.08;;;15.00;82.20;;;;;;5113325;28;20024;-42
2021/01/03 04:22:28;;;;;;;3.05;1.73;;;15.00;82.20;;;;;;5104377;28;20043;-41
2021/01/03 04:24:58;;;;;;;2.92;2.00;;;14.90;82.10;;;;;;5104286;28;20028;-42
2021/01/03 04:27:25;;;;;;;4.40;2.20;;;14.90;82.10;;;;;;5103979;28;20030;-42
2021/01/03 04:29:51;;;;;;;2.28;2.08;;;14.90;82.80;;;;;;5103929;28;20034;-41
2021/01/03 04:32:17;;;;;;;2.15;1.95;;;14.90;82.10;;;;;;5102966;28;20027;-41
2021/01/03 04:34:43;;;;;;;2.85;2.00;;;14.90;82.10;;;;;;5104105;28;20016;-42
2021/01/03 04:37:10;;;;;;;2.78;2.22;;;14.90;82.10;;;;;;5103240;28;20024;-42
2021/01/03 04:39:36;;;;;;;2.43;1.70;;;14.90;82.10;;;;;;5103968;28;20043;-42
2021/01/03 04:42:16;;;;;;;1.70;1.60;;;14.90;82.20;;;;;;5116795;28;20091;-41
2021/01/03 04:44:44;;;;;;;2.30;1.83;;;14.90;82.10;;;;;;5124173;28;20031;-42
2021/01/03 04:47:30;;;;;;;;;;;14.90;82.10;;;;;;5089401;28;20028;-42
2021/01/03 04:50:22;;;;;;;2.00;1.80;;;14.90;82.10;;;;;;5095236;28;19908;-42
2021/01/03 04:53:20;;;;;;;4.00;2.10;;;14.90;82.10;;;;;;5103628;28;20629;-42
2021/01/03 04:55:51;;;;;;;2.00;1.75;;;14.90;82.10;;;;;;5043491;28;20052;-42
2021/01/03 04:58:41;;;;;;;2.45;2.20;;;14.80;82.00;;;;;;5085486;28;20051;-41
2021/01/03 05:01:24;;;;;;;4.38;2.05;;;14.80;82.00;;;;;;5073783;28;20043;-42
2021/01/03 05:04:08;;;;;;;2.85;2.00;;;14.80;82.00;;;;;;5103495;28;20036;-41
2021/01/03 05:06:34;;;;;;;2.17;1.95;;;14.80;82.00;;;;;;5103099;28;20516;-41
2021/01/03 05:09:06;;;;;;;2.08;1.88;;;14.80;82.00;;;;;;5103383;28;20032;-41
2021/01/03 05:11:51;;;;;;;2.25;1.67;;;14.80;82.00;;;;;;5068693;28;20028;-43
2021/01/03 05:14:36;;;;;;;2.30;2.10;;;14.80;82.00;;;;;;5103306;28;20051;-41
2021/01/03 05:17:02;;;;;;;2.17;1.88;;;14.80;82.00;;;;;;5084755;28;20054;-41
2021/01/03 05:19:28;;;;;;;2.10;1.90;;;14.80;81.90;;;;;;5088357;28;20071;-41
2021/01/03 05:21:56;;;;;;;3.45;2.30;;;14.80;82.00;;;;;;5102990;28;20064;-41
2021/01/03 05:24:22;;;;;;;;;;;14.80;82.00;;;;;;5103807;28;20035;-41
2021/01/03 05:26:49;;;;;;;2.08;1.88;;;14.80;82.00;;;;;;5102916;28;19957;-41
2021/01/03 05:29:26;;;;;;;2.47;2.10;;;14.80;82.00;;;;;;5100012;28;20027;-41
2021/01/03 05:32:03;;;;;;;3.00;2.17;;;14.70;81.90;;;;;;5082596;28;20047;-41
2021/01/03 05:34:40;;;;;;;1.30;1.20;;;14.70;81.90;;;;;;5082783;28;20033;-41
2021/01/03 05:37:09;;;;;;;1.27;1.17;;;14.70;81.90;;;;;;5080786;28;20564;-42
2021/01/03 05:39:36;;;;;;;2.13;1.92;;;14.70;81.90;;;;;;5081325;28;20265;-41
2021/01/03 05:42:20;;;;;;;4.25;1.90;;;14.70;81.90;;;;;;5080656;28;20051;-41
2021/01/03 05:44:59;;;;;;;2.50;2.00;;;14.70;81.90;;;;;;5081298;28;20031;-41
2021/01/03 05:47:27;;;;;;;2.45;2.10;;;14.70;82.00;;;;;;5082300;28;20041;-41
2021/01/03 05:50:15;;;;;;;3.25;2.20;;;14.60;81.90;;;;;;5089538;28;20020;-41
2021/01/03 05:53:06;;;;;;;3.80;1.90;;;14.60;81.90;;;;;;5094491;28;20032;-41
2021/01/03 05:55:32;;;;;;;2.55;2.13;;;14.60;81.90;;;;;;5102629;28;20252;-41
2021/01/03 05:58:19;;;;;;;2.08;1.88;;;14.60;81.90;;;;;;5099379;28;20016;-41
2021/01/03 06:00:46;;;;;;;2.53;2.30;;;14.60;81.90;;;;;;5094416;28;20036;-41
2021/01/03 06:03:30;;;;;;;1.95;1.73;;;14.60;81.90;;;;;;5102534;28;20384;-41
2021/01/03 06:06:19;;;;;;;2.13;1.92;;;14.60;82.00;;;;;;5101156;28;20024;-41
2021/01/03 06:08:46;;;;;;;2.40;1.98;;;14.60;82.00;;;;;;5079963;28;20020;-42
2021/01/03 06:11:20;;;;;;;2.38;2.08;;;14.50;81.90;;;;;;5098986;28;20127;-41
2021/01/03 06:13:48;;;;;;;4.13;2.40;;;14.60;81.90;;;;;;5080780;28;20035;-41
2021/01/03 06:16:15;;;;;;;2.38;2.17;;;14.50;81.90;;;;;;5082176;28;20092;-41
2021/01/03 06:18:51;;;;;;;1.60;1.40;;;14.60;81.90;;;;;;5080581;28;20052;-41
2021/01/03 06:21:33;;;;;;;2.60;1.95;;;14.50;81.90;;;;;;5100901;28;20035;-42
2021/01/03 06:24:13;;;;;;;2.40;2.20;;;14.50;81.90;;;;;;5084943;28;20481;-41
2021/01/03 06:26:51;;;;;;;3.58;2.00;;;14.50;82.00;;;;;;5102364;28;20023;-41
2021/01/03 06:29:23;;;;;;;4.20;2.20;;;14.50;81.90;;;;;;5100329;28;20115;-42
2021/01/03 06:32:04;;;;;;;2.67;2.00;;;14.50;82.00;;;;;;5084374;28;20050;-41
2021/01/03 06:34:39;;;;;;;2.47;1.98;;;14.50;82.00;;;;;;5100705;28;20039;-42
2021/01/03 06:37:05;;;;;;;3.00;1.98;;;14.40;81.90;;;;;;5088677;28;20098;-41
2021/01/03 06:40:09;;;;;;;2.25;2.00;;;14.40;82.00;;;;;;5081829;28;20031;-42
2021/01/03 06:43:03;;;;;;;2.22;1.98;;;14.40;81.90;;;;;;5072459;28;20169;-41
2021/01/03 06:45:42;;;;;;;2.35;1.98;;;14.40;82.00;;;;;;5080686;28;20044;-41
2021/01/03 06:48:23;;;;;;;3.30;2.00;;;14.40;81.90;;;;;;5080640;28;20033;-42
2021/01/03 06:50:55;;;;;;;3.35;2.00;;;14.40;82.10;;;;;;5087175;28;20051;-41
2021/01/03 06:54:03;;;;;;;3.05;2.10;;;14.40;82.10;;;;;;5080271;28;20131;-42
2021/01/03 06:56:33;;;;;;;2.20;1.83;;;14.40;82.00;;;;;;5084414;28;20025;-42
2021/01/03 06:59:12;;;;;;;2.03;1.88;;;14.30;81.90;;;;;;5084260;28;20024;-42
2021/01/03 07:01:39;;;;;;;2.85;2.30;;;14.30;81.90;;;;;;5085374;28;20036;-41
2021/01/03 07:04:20;;;;;;;2.40;2.20;;;14.30;81.90;;;;;;5085331;28;20032;-41
2021/01/03 07:06:46;;;;;;;2.35;1.83;;;14.30;81.90;;;;;;5083769;28;20047;-41
2021/01/03 07:09:13;;;;;;;2.38;1.77;;;14.30;81.90;;;;;;5085385;28;20056;-41
2021/01/03 07:11:44;;;;;;;2.20;1.92;;;14.30;81.90;;;;;;5085332;28;20028;-41
2021/01/03 07:14:30;;;;;;;2.40;2.20;;;14.20;81.90;;;;;;5084738;28;20110;-41
2021/01/03 07:17:07;;;;;;;3.25;2.38;;;14.20;81.80;;;;;;5085164;28;20028;-41
2021/01/03 07:19:40;;;;;;;1.67;1.57;;;14.20;81.80;;;;;;5087360;28;20036;-41
2021/01/03 07:22:20;;;;;;;2.40;1.95;;;14.20;81.90;;;;;;5100478;28;20128;-43
2021/01/03 07:24:46;;;;;;;2.97;2.05;;;14.20;81.90;;;;;;5084911;28;20028;-42
2021/01/03 07:27:35;;;;;;;2.40;2.20;;;14.20;81.80;;;;;;5085043;28;20058;-42
2021/01/03 07:30:04;;;;;;;2.13;1.90;;;14.20;81.80;;;;;;5092334;28;20031;-41
2021/01/03 07:32:39;;;;;;;3.90;2.03;;;14.20;81.90;;;;;;5105136;28;20016;-41
2021/01/03 07:35:10;;;;;;;2.42;2.10;;;14.10;81.80;;;;;;5103123;28;20054;-41
2021/01/03 07:37:36;;;;;;;2.78;2.30;;;14.10;81.80;;;;;;5088384;28;20036;-42
2021/01/03 07:40:08;;;;;;;2.08;1.88;;;14.10;81.80;;;;;;5084759;28;20033;-41
2021/01/03 07:42:45;;;;;;;2.88;1.92;;;14.10;81.90;;;;;;5084655;28;20037;-41
2021/01/03 07:45:14;;;;;;;3.10;2.20;;;14.10;82.00;;;;;;5067533;28;20044;-41
2021/01/03 07:47:48;;;;;;;2.55;2.10;;;14.10;81.90;;;;;;5084362;28;20092;-41
2021/01/03 07:50:27;;;;;;;2.65;1.92;;;14.10;81.90;;;;;;5080302;28;20047;-41
2021/01/03 07:53:18;;;;;;;2.75;1.98;;;14.10;81.90;;;;;;5104758;28;20463;-41
2021/01/03 07:55:44;;;;;;;2.08;1.90;;;14.00;81.70;;;;;;5099436;28;20027;-42
2021/01/03 07:58:15;;;;;;;2.60;2.08;;;14.00;81.90;;;;;;5086937;28;20029;-41
2021/01/03 08:00:42;;;;;;;2.80;1.90;;;14.00;81.80;;;;;;5084347;28;20028;-41
2021/01/03 08:03:09;;;;;;;2.47;1.92;;;14.00;81.90;;;;;;5084399;28;20024;-41
2021/01/03 08:05:36;;;;;;;4.00;1.95;;;14.00;81.90;;;;;;5083800;28;20036;-42
2021/01/03 08:08:21;;;;;;;3.38;1.92;;;14.00;81.90;;;;;;5084031;28;20438;-41
2021/01/03 08:10:50;;;;;;;2.33;2.13;;;13.90;81.70;;;;;;5087647;28;20032;-41
2021/01/03 08:13:18;;;;;;;2.25;2.00;;;13.90;81.80;;;;;;5084244;28;20107;-41
2021/01/03 08:15:44;;;;;;;2.47;1.80;;;14.00;81.80;;;;;;5082573;28;20025;-41
2021/01/03 08:18:18;;;;;;;3.47;2.35;;;13.90;81.80;;;;;;5065838;28;20048;-41
2021/01/03 08:20:44;;;;;;;2.58;2.03;;;13.90;81.80;;;;;;5101429;28;20043;-41
2021/01/03 08:23:19;;;;;;;2.22;1.83;;;13.90;81.70;;;;;;5102677;28;20047;-41
2021/01/03 08:25:45;;;;;;;2.13;1.92;;;13.90;81.80;;;;;;5104008;28;20039;-41
2021/01/03 08:28:11;;;;;;;2.20;2.00;;;13.90;81.70;;;;;;5104092;28;20057;-41
2021/01/03 08:30:38;;;;;;;2.28;2.08;;;13.90;81.70;;;;;;5091471;28;20493;-41
2021/01/03 08:33:14;;;;;;;3.45;2.45;;;13.80;81.70;;;;;;5083701;28;20024;-42
2021/01/03 08:35:40;;;;;;;2.05;1.85;;;13.80;81.90;;;;;;5081958;28;20441;-41
2021/01/03 08:38:06;;;;;;;2.15;1.95;;;13.80;81.70;;;;;;5083534;28;20065;-41
2021/01/03 08:40:41;;;;;;;2.50;2.20;;;13.80;81.80;;;;;;5083762;28;20024;-41
2021/01/03 08:43:18;;;;;;;3.22;1.95;;;13.80;81.70;;;;;;5082170;28;20038;-41
2021/01/03 08:45:45;;;;;;;3.63;1.90;;;13.80;81.90;;;;;;5066377;28;20105;-41
2021/01/03 08:48:23;;;;;;;2.83;2.03;;;13.80;81.70;;;;;;5082067;28;20024;-41
2021/01/03 08:51:01;;;;;;;1.67;1.45;;;13.80;81.70;;;;;;5099501;28;20051;-41
2021/01/03 08:53:27;;;;;;;1.98;1.55;;;13.70;81.70;;;;;;5103775;28;20024;-41
2021/01/03 08:56:16;;;;;;;2.58;1.98;;;13.70;81.80;;;;;;5103492;28;20028;-41
2021/01/03 08:58:42;;;;;;;1.75;1.63;;;13.70;81.90;;;;;;5103409;28;20485;-41
2021/01/03 09:01:28;;;;;;;2.42;1.75;;;13.70;81.80;;;;;;5086590;28;20028;-41
2021/01/03 09:03:56;;;;;;;2.10;1.90;;;13.60;81.70;;;;;;5081775;28;20100;-41
2021/01/03 09:06:22;;;;;;;2.20;2.00;;;13.70;81.80;;;;;;5064855;28;20021;-42
2021/01/03 09:08:48;;;;;;;1.60;1.42;;;13.60;81.60;;;;;;5081770;28;20032;-41
2021/01/03 09:11:21;;;;;;;2.10;1.90;;;13.60;81.70;;;;;;5083102;28;20020;-43
2021/01/03 09:14:20;;;;;;;2.00;1.75;;;13.60;82.40;;;;;;5081675;28;20039;-41
2021/01/03 09:16:49;;;;;;;;;;;13.60;81.70;;;;;;5074847;28;20684;-41
2021/01/03 09:19:28;;;;;;;2.05;1.85;;;13.60;81.70;;;;;;5106222;28;19920;-41
2021/01/03 09:21:56;;;;;;;1.98;1.77;;;13.60;81.60;;;;;;5105005;28;20040;-41
2021/01/03 09:24:23;;;;;;;;;;;13.50;81.60;;;;;;5105714;28;20091;-42
2021/01/03 09:26:49;;;;;;;2.42;1.88;;;13.50;81.70;;;;;;5105224;28;19912;-41
2021/01/03 09:29:20;;;;;;;1.60;1.50;;;13.50;81.70;;;;;;5122213;28;20023;-41
2021/01/03 09:32:06;;;;;;;1.95;1.60;;;13.50;81.80;;;;;;5111793;28;20036;-41
2021/01/03 09:34:53;;;;;;;2.33;1.77;;;13.50;81.80;;;;;;5106128;28;20034;-42
2021/01/03 09:37:30;;;;;;;2.63;1.98;;;13.50;81.70;;;;;;5090530;28;20028;-43
2021/01/03 09:40:29;;;;;;;1.77;1.67;;;13.50;81.80;;;;;;5102914;28;20135;-41
2021/01/03 09:43:32;;;;;;;1.90;1.58;;;13.50;81.70;;;;;;5000291;28;20045;-41
2021/01/03 09:46:04;;;;;;;2.38;1.88;;;13.40;81.70;;;;;;5009752;28;20049;-41
2021/01/03 09:48:34;;;;;;;2.20;1.88;;;13.40;81.80;;;;;;5000603;28;20031;-41
2021/01/03 09:51:12;;;;;;;1.88;1.63;;;13.40;81.80;;;;;;5000070;28;20023;-41
2021/01/03 09:53:39;;;;;;;1.92;1.73;;;13.40;81.90;;;;;;4983877;28;20072;-40
2021/01/03 09:56:07;;;;;;;;;;;13.40;81.80;;;;;;4984174;28;20034;-40
2021/01/03 09:58:40;;;;;;;1.70;1.55;;;13.40;81.80;;;;;;5003269;28;20391;-43
2021/01/03 10:01:31;;;;;;;2.13;1.92;;;13.40;81.70;;;;;;5016020;28;20049;-41
2021/01/03 10:04:13;;;;;;;1.90;1.70;;;13.40;82.00;;;;;;5019705;28;20060;-41
2021/01/03 10:06:40;;;;;;;3.80;2.00;;;13.30;81.70;;;;;;5004846;28;20046;-41
2021/01/03 10:09:17;;;;;;;2.28;2.00;;;13.30;81.80;;;;;;5019869;28;20037;-40
2021/01/03 10:11:43;;;;;;;1.70;1.60;;;13.30;81.80;;;;;;5019499;28;20057;-43
2021/01/03 10:14:12;;;;;;;1.90;1.70;;;13.30;82.70;;;;;;5019568;28;20030;-40
2021/01/03 10:16:39;;;;;;;2.22;1.73;;;13.30;81.70;;;;;;5019587;28;20553;-43
2021/01/03 10:19:17;;;;;;;1.98;1.73;;;13.30;81.90;;;;;;5082982;28;20516;-43
2021/01/03 10:21:43;;;;;;;2.38;1.55;;;13.30;81.80;;;;;;5122379;28;20066;-42
2021/01/03 10:24:23;;;;;;;2.00;1.57;;;13.30;82.70;;;;;;5122885;28;20031;-41
2021/01/03 10:27:13;;;;;;;1.90;1.80;;;13.30;82.60;;;;;;5122309;28;20260;-42
2021/01/03 10:29:40;;;;;;;1.92;1.73;;;13.20;81.80;;;;;;5119399;28;20024;-40
2021/01/03 10:32:06;;;;;;;2.05;1.85;;;13.20;81.80;;;;;;5106440;28;20024;-41
2021/01/03 10:34:32;;;;;;;2.10;1.90;;;13.20;82.50;;;;;;5106380;28;20020;-40
2021/01/03 10:36:59;;;;;;;2.10;1.70;;;13.20;81.90;;;;;;5105781;28;20020;-40
2021/01/03 10:39:26;;;;;;;2.53;1.67;;;13.20;81.90;;;;;;5088184;28;20046;-42
2021/01/03 10:41:52;;;;;;;;;;;13.20;81.80;;;;;;5106566;28;20040;-40
2021/01/03 10:44:18;;;;;;;1.77;1.67;;;13.20;81.90;;;;;;5105973;28;19908;-43
2021/01/03 10:46:47;;;;;;;2.20;1.80;;;13.20;81.90;;;;;;5105758;28;20031;-41
2021/01/03 10:49:13;;;;;;;1.83;1.70;;;13.10;81.70;;;;;;5111413;28;20031;-41
2021/01/03 10:51:43;;;;;;;2.10;1.80;;;13.10;81.70;;;;;;5115825;28;20500;-40
2021/01/03 10:54:12;;;;;;;2.15;1.92;;;13.10;81.80;;;;;;5087581;28;20019;-40
2021/01/03 10:56:39;;;;;;;1.88;1.67;;;13.10;81.80;;;;;;5105469;28;20105;-40
2021/01/03 10:59:05;;;;;;;1.90;1.77;;;13.10;81.80;;;;;;5105735;28;20039;-40
2021/01/03 11:01:31;;;;;;;2.00;1.50;;;13.10;81.80;;;;;;5087546;28;20032;-40
2021/01/03 11:03:58;;;;;;;2.08;1.88;;;13.10;81.80;;;;;;5105699;28;20036;-40
2021/01/03 11:06:24;;;;;;;2.08;1.83;;;13.10;81.80;;;;;;5105288;28;20024;-43
2021/01/03 11:08:50;;;;;;;2.47;1.73;;;13.00;81.70;;;;;;5105715;28;20043;-41
2021/01/03 11:11:20;;;;;;;1.73;1.63;;;13.00;81.90;;;;;;5105646;28;20051;-41
2021/01/03 11:13:46;;;;;;;1.98;1.77;;;13.00;81.80;;;;;;5105521;28;20024;-41
2021/01/03 11:16:12;;;;;;;2.00;1.75;;;13.00;81.90;;;;;;5105468;28;20039;-41
2021/01/03 11:18:38;;;;;;;1.70;1.60;;;13.00;81.90;;;;;;5105120;28;20051;-41
2021/01/03 11:21:10;;;;;;;1.65;1.55;;;13.00;81.90;;;;;;5105423;28;20032;-41
2021/01/03 11:23:37;;;;;;;1.95;1.77;;;13.00;81.80;;;;;;5105511;28;20159;-41
2021/01/03 11:26:04;;;;;;;1.83;1.73;;;13.00;81.90;;;;;;5105375;28;20074;-41
2021/01/03 11:28:30;;;;;;;2.58;2.05;;;13.00;81.80;;;;;;5104924;28;20034;-43
2021/01/03 11:30:56;;;;;;;2.10;1.90;;;13.00;81.80;;;;;;5120548;28;20743;-43
2021/01/03 11:33:22;;;;;;;1.90;1.70;;;13.00;81.90;;;;;;5123200;28;20016;-41
2021/01/03 11:35:48;;;;;;;2.33;2.00;;;12.90;81.90;;;;;;5123303;28;20050;-40
2021/01/03 11:38:14;;;;;;;2.20;2.00;;;12.90;82.00;;;;;;5104804;28;20032;-43
2021/01/03 11:40:41;;;;;;;2.17;1.98;;;12.90;81.90;;;;;;5106335;28;20024;-43
2021/01/03 11:43:07;;;;;;;2.15;1.90;;;12.90;81.80;;;;;;5112341;28;20083;-40
2021/01/03 11:45:33;;;;;;;2.10;1.88;;;12.90;81.80;;;;;;5104795;28;20031;-42
2021/01/03 11:47:59;;;;;;;2.35;2.10;;;12.90;81.80;;;;;;5104607;28;20031;-43
2021/01/03 11:50:25;;;;;;;2.13;1.88;;;12.90;81.90;;;;;;5119893;28;20616;-40
2021/01/03 11:52:51;;;;;;;2.25;1.80;;;12.80;81.90;;;;;;5125056;28;20073;-40
2021/01/03 11:55:19;;;;;;;1.98;1.80;;;12.90;81.90;;;;;;5125311;28;20031;-41
2021/01/03 11:57:45;;;;;;;2.88;1.98;;;12.80;81.70;;;;;;5122968;28;20032;-42
2021/01/03 12:00:13;;;;;;;2.30;1.85;;;12.80;81.70;;;;;;5104651;28;20031;-42
2021/01/03 12:02:40;;;;;;;2.17;1.95;;;12.80;81.80;;;;;;5104650;28;20035;-42
2021/01/03 12:05:07;;;;;;;2.17;1.90;;;12.80;81.80;;;;;;5104685;28;20031;-43
2021/01/03 12:07:33;;;;;;;2.25;2.05;;;12.80;81.70;;;;;;5104084;28;20036;-42
2021/01/03 12:09:59;;;;;;;2.03;1.73;;;12.80;81.80;;;;;;5104562;28;20028;-42
2021/01/03 12:12:25;;;;;;;1.92;1.83;;;12.80;82.10;;;;;;5104446;28;20058;-42
2021/01/03 12:14:51;;;;;;;2.03;1.92;;;12.80;81.90;;;;;;5086223;28;20028;-43
2021/01/03 12:17:19;;;;;;;2.10;1.85;;;12.80;81.90;;;;;;5104203;28;20032;-42
2021/01/03 12:19:46;;;;;;;2.10;1.90;;;12.70;81.70;;;;;;5113585;28;20039;-43
2021/01/03 12:22:12;;;;;;;2.28;2.08;;;12.70;81.80;;;;;;5124406;28;20068;-43
2021/01/03 12:24:38;;;;;;;1.90;1.70;;;12.70;81.80;;;;;;5124848;28;20032;-42
2021/01/03 12:27:05;;;;;;;1.83;1.73;;;12.70;81.70;;;;;;5121104;28;20045;-46
2021/01/03 12:29:31;;;;;;;1.80;1.70;;;12.70;81.70;;;;;;5102973;28;20021;-42
2021/01/03 12:31:59;;;;;;;2.20;2.00;;;12.70;81.70;;;;;;5104087;28;20039;-42
2021/01/03 12:34:26;;;;;;;1.95;1.75;;;12.70;81.90;;;;;;5103966;28;20705;-42
2021/01/03 12:36:53;;;;;;;1.83;1.73;;;12.70;81.80;;;;;;5103912;28;20547;-43
2021/01/03 12:39:19;;;;;;;1.95;1.80;;;12.70;81.80;;;;;;5085810;28;20028;-42
2021/01/03 12:41:46;;;;;;;1.83;1.73;;;12.70;81.80;;;;;;5096044;28;20031;-43
2021/01/03 12:44:12;;;;;;;2.38;1.77;;;12.60;81.60;;;;;;5107846;28;20024;-42
2021/01/03 12:46:44;;;;;;;2.10;1.90;;;12.60;81.70;;;;;;5103789;28;20092;-42
2021/01/03 12:49:10;;;;;;;1.98;1.88;;;12.60;81.70;;;;;;5107722;28;20139;-42
2021/01/03 12:51:37;;;;;;;2.00;1.80;;;12.60;81.80;;;;;;5105235;28;20032;-42
2021/01/03 12:54:03;;;;;;;1.98;1.77;;;12.60;81.70;;;;;;5123962;28;20023;-42
2021/01/03 12:56:30;;;;;;;2.13;1.93;;;12.60;81.70;;;;;;5124080;28;20035;-42
2021/01/03 12:58:58;;;;;;;2.05;1.90;;;12.60;81.80;;;;;;5123924;28;20024;-42
2021/01/03 13:01:33;;;;;;;2.20;2.00;;;12.60;81.80;;;;;;5104659;28;20036;-42
2021/01/03 13:04:04;;;;;;;2.17;1.98;;;12.60;81.70;;;;;;5085379;28;20119;-42
2021/01/03 13:06:32;;;;;;;1.90;1.80;;;12.50;81.90;;;;;;5103171;28;20028;-42
2021/01/03 13:08:59;;;;;;;1.60;1.50;;;12.50;81.70;;;;;;5103384;28;20127;-42